createdAt,value
2019-05-09T00:01:03.715Z,25.70
2019-05-09T00:03:34.700Z,25.80
2019-05-09T00:06:07.164Z,25.70
2019-05-09T00:08:39.577Z,25.90
2019-05-09T00:11:14.160Z,25.90
2019-05-09T00:13:45.733Z,26.00
2019-05-09T00:16:18.318Z,26.00
2019-05-09T00:18:50.865Z,26.00
2019-05-09T00:21:25.083Z,26.00
2019-05-09T00:23:57.886Z,26.00
2019-05-09T00:26:33.749Z,26.10
2019-05-09T00:29:06.708Z,26.20
2019-05-09T00:31:43.731Z,26.10
2019-05-09T00:34:16.570Z,26.30
2019-05-09T00:36:49.111Z,26.40
2019-05-09T00:39:23.580Z,26.50
2019-05-09T00:41:55.246Z,26.50
2019-05-09T00:44:28.845Z,26.60
2019-05-09T00:47:04.240Z,26.70
2019-05-09T00:49:36.251Z,26.60
2019-05-09T00:52:09.156Z,26.70
2019-05-09T00:54:43.670Z,26.80
2019-05-09T00:57:16.685Z,26.90
2019-05-09T00:59:48.949Z,27.00
2019-05-09T01:02:23.530Z,27.10
2019-05-09T01:04:54.967Z,27.10
2019-05-09T01:07:28.008Z,27.20
2019-05-09T01:10:00.310Z,27.20
2019-05-09T01:12:34.189Z,27.30
2019-05-09T01:15:08.628Z,27.30
2019-05-09T01:17:41.302Z,27.40
2019-05-09T01:20:14.675Z,27.50
2019-05-09T01:22:47.234Z,27.50
2019-05-09T01:25:20.151Z,27.60
2019-05-09T01:27:53.879Z,27.60
2019-05-09T01:30:26.487Z,27.60
2019-05-09T01:33:00.243Z,27.70
2019-05-09T01:35:33.969Z,27.70
2019-05-09T01:38:06.957Z,27.70
2019-05-09T01:40:39.397Z,27.70
2019-05-09T01:43:13.753Z,27.80
2019-05-09T01:45:47.241Z,27.70
2019-05-09T01:48:19.724Z,27.70
2019-05-09T01:50:53.759Z,27.70
2019-05-09T01:53:27.707Z,27.70
2019-05-09T01:56:00.667Z,27.70
2019-05-09T01:58:34.698Z,27.70
2019-05-09T02:01:08.483Z,27.90
2019-05-09T02:03:41.026Z,28.00
2019-05-09T02:06:13.930Z,27.90
2019-05-09T02:08:46.344Z,28.10
2019-05-09T02:11:18.787Z,28.30
2019-05-09T02:13:53.274Z,28.40
2019-05-09T02:16:26.813Z,28.40
2019-05-09T02:19:00.427Z,28.50
2019-05-09T02:21:34.472Z,28.60
2019-05-09T02:24:07.876Z,28.80
2019-05-09T02:26:40.533Z,28.70
2019-05-09T02:29:13.872Z,28.90
2019-05-09T02:31:46.473Z,29.00
2019-05-09T02:34:19.359Z,28.90
2019-05-09T02:36:51.591Z,29.00
